• Join FlightAware (Why Join?)
  • Login
  • US Flag 
03:30PM EDT


 

Airport Tracker/Info


-or-


 

Live Flight TrackerFlight Track Log ✈ SWA149 ✈ 18-Aug-2013 ✈ KBHM - KDAL

Flight Track Log - Related Links

Times and Time Zones

All times are in EDT time to prevent confusion due to time zone crossing. See the SWA149 flight status page for this flight to view local times or setup timezone preferences in your user account.

Time Position Orientation Groundspeed Altitude Reporting Facility
EDT Latitude Longitude Course Direction KTS MPH feet Rate Location/Type
10:45AM 33.5919 -86.7122 53° Northeast 171 197 2,800  Level Atlanta Center
10:46AM 33.6694 -86.7022 North 177 204 5,900 2,100 Climbing Atlanta Center
10:47AM 33.6656 -86.7892 267° West 144 166 8,000 2,160 Climbing Atlanta Center
10:48AM 33.6594 -86.8714 265° West 188 216 10,300 2,460 Climbing Atlanta Center
10:49AM 33.6464 -86.9808 262° West 260 299 13,000 2,880 Climbing Atlanta Center
10:51AM 33.6708 -87.2622 276° West 352 405 19,800 2,820 Climbing Memphis Center
10:52AM 33.6864 -87.3914 278° West 376 433 22,300 1,800 Climbing Memphis Center
10:53AM 33.6622 -87.5194 257° West 388 447 23,500 1,800 Climbing Memphis Center
10:54AM 33.6400 -87.6475 258° West 394 453 26,000 2,160 Climbing Memphis Center
10:55AM 33.6158 -87.7781 258° West 394 453 27,900 1,800 Climbing Memphis Center
10:56AM 33.5914 -87.9108 258° West 399 459 29,700 1,920 Climbing Memphis Center
10:57AM 33.5708 -88.0436 260° West 404 465 31,800 1,800 Climbing Memphis Center
10:58AM 33.5439 -88.1739 256° West 404 465 33,300 1,380 Climbing Memphis Center
10:59AM 33.5294 -88.2914 262° West 410 472 34,600 1,320 Climbing Memphis Center
11:00AM 33.5064 -88.4189 258° West 405 466 36,000 660 Climbing Memphis Center
11:01AM 33.4875 -88.5489 260° West 397 457 36,000  Level Memphis Center
11:02AM 33.4850 -88.6808 269° West 397 457 36,000  Level Memphis Center
11:03AM 33.4847 -88.8156 270° West 403 464 36,000  Level Memphis Center
11:04AM 33.4842 -88.9500 270° West 403 464 36,000  Level Memphis Center
11:05AM 33.4817 -89.0969 269° West 403 464 36,000 600 Level Memphis Center
11:06AM 33.4808 -89.2289 270° West 403 464 37,300 960 Climbing Memphis Center
11:07AM 33.4758 -89.3586 267° West 403 464 38,000 300 Climbing Memphis Center
11:08AM 33.4369 -89.4761 248° West 382 440 38,000  Level Memphis Center
11:09AM 33.3961 -89.5958 248° West 388 447 38,000  Level Memphis Center
11:10AM 33.3550 -89.7131 247° West 388 447 38,000  Level Memphis Center
11:11AM 33.3136 -89.8278 247° West 388 447 38,000  Level Memphis Center
11:12AM 33.2744 -89.9472 249° West 388 447 38,000  Level Memphis Center
11:13AM 33.2331 -90.0642 247° West 388 447 38,000  Level Memphis Center
11:14AM 33.2061 -90.1761 254° West 393 452 38,000  Level Memphis Center
11:15AM 33.1772 -90.3028 255° West 393 452 38,000  Level Memphis Center
11:16AM 33.1478 -90.4267 254° West 388 447 38,000  Level Memphis Center
11:17AM 33.1206 -90.5556 256° West 398 458 38,000 300 Level Memphis Center
11:18AM 33.0911 -90.6797 254° West 398 458 38,600 720 Climbing Memphis Center
11:19AM 33.0636 -90.8108 256° West 398 458 39,500 600 Climbing Memphis Center
11:20AM 33.0317 -90.9397 254° West 398 458 39,900 240 Climbing Memphis Center
11:21AM 33.0019 -91.0756 255° West 406 467 40,000  Climbing Memphis Center
11:23AM 32.9486 -91.3167 255° West 409 471 40,000  Level Fort Worth Center
11:24AM 32.9194 -91.4472 255° West 403 464 40,000  Level Fort Worth Center
11:25AM 32.8900 -91.5781 255° West 408 470 40,000 -420 Level Fort Worth Center
11:26AM 32.8561 -91.7061 253° West 408 470 39,200 -900 Descending Fort Worth Center
11:27AM 32.8292 -91.8489 257° West 408 470 38,200 -960 Descending Fort Worth Center
11:28AM 32.7933 -91.9844 253° West 408 470 37,300 -960 Descending Fort Worth Center
11:29AM 32.7678 -92.1144 257° West 408 470 36,300 -660 Descending Fort Worth Center
11:30AM 32.7317 -92.2500 252° West 418 481 36,000 -180 Descending Fort Worth Center
11:31AM 32.6994 -92.3825 254° West 424 488 36,000  Level Fort Worth Center
11:32AM 32.6669 -92.5128 254° West 424 488 36,000  Level Fort Worth Center
11:33AM 32.6364 -92.6400 254° West 424 488 36,000  Level Fort Worth Center
11:34AM 32.6164 -92.7719 260° West 424 488 36,000  Level Fort Worth Center
11:35AM 32.6025 -92.9106 263° West 418 481 36,000  Level Fort Worth Center
11:36AM 32.5906 -93.0469 264° West 423 487 36,000  Level Fort Worth Center
11:37AM 32.5767 -93.1856 263° West 429 494 36,000  Level Fort Worth Center
11:38AM 32.5625 -93.3242 263° West 429 494 36,000  Level Fort Worth Center
11:39AM 32.5481 -93.4628 263° West 429 494 36,000  Level Fort Worth Center
11:40AM 32.5356 -93.6014 264° West 429 494 36,000  Level Fort Worth Center
11:41AM 32.5208 -93.7400 263° West 429 494 36,000  Level Fort Worth Center
11:42AM 32.5061 -93.8808 263° West 429 494 36,000  Level Fort Worth Center
11:43AM 32.4911 -94.0194 263° West 429 494 36,000  Level Fort Worth Center
11:44AM 32.4825 -94.1603 266° West 429 494 36,000  Level Fort Worth Center
11:45AM 32.4733 -94.3008 266° West 429 494 36,000  Level Fort Worth Center
11:46AM 32.4681 -94.4267 267° West 429 494 36,000  Level Fort Worth Center
11:47AM 32.4567 -94.5672 265° West 429 494 36,000 -300 Level Fort Worth Center
11:48AM 32.4494 -94.7128 267° West 434 499 35,400 -1,500 Descending Fort Worth Center
11:49AM 32.4400 -94.8508 265° West 434 499 33,000 -2,400 Descending Fort Worth Center
11:50AM 32.4364 -94.9914 268° West 434 499 30,700 1,500 Descending Fort Worth Center
11:51AM 32.4264 -95.1294 265° West 429 494 36,000 -2,100 Climbing Fort Worth Center
11:52AM 32.4183 -95.2600 266° West 416 479 26,500 -5,880 Descending Fort Worth Center
11:53AM 32.4206 -95.3856 271° West 403 464 24,300 -2,400 Descending Fort Worth Center
11:54AM 32.4392 -95.5131 280° West 397 457 21,700 -2,580 Descending Fort Worth Center
11:55AM 32.4597 -95.6381 281° West 397 457 19,200 -2,100 Descending Fort Worth Center
11:56AM 32.4761 -95.7611 279° West 390 449 17,500 -1,800 Descending Fort Worth Center
11:57AM 32.4964 -95.8764 282° West 374 430 15,700 -1,800 Descending Fort Worth Center
11:58AM 32.5100 -95.9894 278° West 362 417 14,000 -1,620 Descending Fort Worth Center
11:59AM 32.5281 -96.0928 282° West 341 392 12,500 -1,500 Descending Fort Worth Center
12:00PM 32.5414 -96.1936 279° West 326 375 11,000 -1,440 Descending Fort Worth Center
12:01PM 32.5569 -96.2894 281° West 313 360 9,700 -1,500 Descending Fort Worth Center
12:02PM 32.5869 -96.3731 293° West 289 333 8,000 -1,620 Descending Fort Worth Center
12:03PM 32.6292 -96.4489 303° West 277 319 6,500 -1,260 Descending Fort Worth Center
12:04PM 32.6694 -96.5200 304° West 272 313 5,500 -960 Descending Fort Worth Center
12:05PM 32.7242 -96.5811 317° Northwest 272 313 4,600 -780 Descending Fort Worth Center
12:06PM 32.7789 -96.6400 318° Northwest 267 307 4,000 -300 Descending Fort Worth Center
12:07PM 32.8314 -96.6964 318° Northwest 262 302 4,000 -480 Level Fort Worth Center
12:08PM 32.8797 -96.7481 318° Northwest 246 283 3,100 -540 Descending Fort Worth Center
12:09PM 32.9194 -96.8022 311° West 230 265 3,000 -360 Descending Fort Worth Center
12:10PM 32.9242 -96.8689 275° West 203 234 2,400 -660 Descending Fort Worth Center
12:11PM 32.8969 -96.8989 223° Southwest 145 167 1,700 -840 Descending Fort Worth Center
12:12PM 32.8678 -96.8692 139° Southeast 74 85 800 -360 Descending Fort Worth Center
12:13PM 32.8383 -96.8275 130° Southeast 85 98 1,000 300 Climbing Fort Worth Center
12:14PM 32.8319 -96.7928 102° East 126 145 1,500 480 Climbing Fort Worth Center